createdAt,value
2022-10-14T00:00:01.874Z,11.00
2022-10-14T00:03:00.757Z,10.95
2022-10-14T00:05:29.983Z,10.97
2022-10-14T00:07:59.306Z,10.82
2022-10-14T00:10:28.389Z,10.88
2022-10-14T00:12:57.409Z,10.96
2022-10-14T00:15:28.682Z,10.97
2022-10-14T00:17:57.743Z,10.95
2022-10-14T00:20:29.776Z,10.99
2022-10-14T00:22:59.035Z,11.05
2022-10-14T00:25:28.493Z,11.06
2022-10-14T00:27:57.543Z,10.95
2022-10-14T00:30:28.175Z,10.92
2022-10-14T00:33:00.048Z,10.92
2022-10-14T00:35:29.544Z,10.89
2022-10-14T00:37:59.169Z,10.98
2022-10-14T00:40:28.719Z,10.81
2022-10-14T00:42:57.946Z,10.82
2022-10-14T00:45:28.396Z,10.76
2022-10-14T00:47:57.779Z,10.81
2022-10-14T00:50:27.285Z,10.79
2022-10-14T00:52:56.389Z,10.82
2022-10-14T00:55:26.335Z,10.83
2022-10-14T00:57:55.710Z,10.82
2022-10-14T01:00:24.995Z,10.84
2022-10-14T01:02:58.066Z,10.80
2022-10-14T01:05:33.522Z,10.83
2022-10-14T01:08:08.261Z,10.82
2022-10-14T01:10:44.883Z,10.88
2022-10-14T01:13:23.545Z,10.94
2022-10-14T01:16:05.068Z,10.85
2022-10-14T01:18:59.884Z,10.91
2022-10-14T01:21:35.722Z,10.79
2022-10-14T01:24:32.122Z,10.51
2022-10-14T01:27:37.522Z,10.63
2022-10-14T01:30:16.030Z,10.61
2022-10-14T01:33:07.190Z,10.63
2022-10-14T01:35:52.167Z,10.61
2022-10-14T01:38:28.406Z,10.67
2022-10-14T01:41:07.186Z,10.77
2022-10-14T01:43:38.389Z,10.75
2022-10-14T01:46:09.269Z,10.67
2022-10-14T01:48:46.723Z,10.63
2022-10-14T01:51:24.047Z,10.40
2022-10-14T01:53:57.938Z,10.45
2022-10-14T01:56:29.022Z,10.43
2022-10-14T01:59:01.754Z,10.25
2022-10-14T02:01:36.693Z,10.29
2022-10-14T02:04:17.232Z,10.39
2022-10-14T02:06:51.290Z,10.21
2022-10-14T02:09:29.578Z,10.14
2022-10-14T02:12:10.332Z,10.10
2022-10-14T02:14:45.618Z,10.22
2022-10-14T02:17:22.374Z,10.31
2022-10-14T02:19:56.582Z,10.30
2022-10-14T02:22:32.790Z,10.46
2022-10-14T02:25:10.648Z,10.51
2022-10-14T02:27:41.239Z,10.47
2022-10-14T02:35:27.215Z,10.72
2022-10-14T02:37:59.094Z,10.73
2022-10-14T02:40:34.709Z,10.78
2022-10-14T02:43:04.135Z,10.87
2022-10-14T02:45:36.041Z,10.87
2022-10-14T02:48:05.585Z,11.02
2022-10-14T02:50:36.182Z,10.95
2022-10-14T02:53:05.281Z,10.98
2022-10-14T02:55:34.620Z,10.94
2022-10-14T02:58:04.083Z,11.09
2022-10-14T03:00:33.372Z,10.91
2022-10-14T03:03:03.267Z,10.97
2022-10-14T03:05:33.487Z,11.10
2022-10-14T03:08:05.870Z,11.01
2022-10-14T03:10:36.178Z,11.05
2022-10-14T03:13:05.543Z,10.94
2022-10-14T03:15:40.446Z,11.03
2022-10-14T03:18:11.988Z,11.17
2022-10-14T03:20:47.502Z,11.03
2022-10-14T03:23:26.367Z,11.13
2022-10-14T03:25:56.684Z,11.12
2022-10-14T03:28:33.557Z,10.99
2022-10-14T03:31:10.749Z,10.94
2022-10-14T03:33:56.089Z,11.00
2022-10-14T03:36:25.744Z,10.91
2022-10-14T03:38:59.218Z,10.86
2022-10-14T03:41:38.377Z,10.78
2022-10-14T03:44:09.245Z,10.74
2022-10-14T03:46:40.756Z,10.51
2022-10-14T03:49:09.993Z,10.54
2022-10-14T03:51:39.243Z,10.52
2022-10-14T03:54:21.555Z,10.46
2022-10-14T03:56:51.366Z,10.25
2022-10-14T03:59:22.402Z,10.16
2022-10-14T04:01:54.514Z,10.18
2022-10-14T04:04:27.044Z,10.10
2022-10-14T04:06:57.796Z,9.89
2022-10-14T04:09:29.346Z,9.81
2022-10-14T04:11:58.623Z,9.69
2022-10-14T04:14:44.809Z,9.63
2022-10-14T04:17:14.891Z,9.55
2022-10-14T04:19:45.660Z,9.55
2022-10-14T04:22:17.840Z,9.51
2022-10-14T04:24:53.326Z,9.50
2022-10-14T04:27:22.746Z,9.50
2022-10-14T04:30:02.568Z,9.24
2022-10-14T04:32:41.386Z,9.28
2022-10-14T04:35:11.243Z,9.30
2022-10-14T04:37:44.872Z,9.08
2022-10-14T04:40:25.748Z,9.12
2022-10-14T04:43:00.082Z,9.11
2022-10-14T04:45:34.890Z,9.07
2022-10-14T04:48:06.144Z,9.06
2022-10-14T04:50:40.764Z,9.09
2022-10-14T04:53:37.257Z,9.24
2022-10-14T04:56:18.608Z,9.26
2022-10-14T04:58:57.108Z,9.18
2022-10-14T05:01:36.422Z,9.25
2022-10-14T05:04:06.451Z,9.24
2022-10-14T05:06:39.486Z,9.19
2022-10-14T05:09:10.930Z,9.29
2022-10-14T05:11:41.738Z,9.14
2022-10-14T05:14:13.363Z,9.13
2022-10-14T05:16:44.833Z,9.03
2022-10-14T05:19:14.437Z,9.13
2022-10-14T05:21:51.603Z,9.10
2022-10-14T05:24:29.221Z,9.20
2022-10-14T05:26:59.890Z,9.36
2022-10-14T05:29:31.488Z,9.39
2022-10-14T05:32:01.867Z,9.51
2022-10-14T05:34:39.527Z,9.63
2022-10-14T05:37:12.090Z,9.79
2022-10-14T05:39:47.599Z,9.73
2022-10-14T05:42:22.544Z,9.97
2022-10-14T05:44:54.788Z,9.99
2022-10-14T05:47:25.995Z,9.95
2022-10-14T05:50:03.158Z,9.92
2022-10-14T05:52:34.317Z,9.92
2022-10-14T05:55:09.697Z,9.93
2022-10-14T05:57:42.574Z,9.95
2022-10-14T06:00:14.976Z,9.94
2022-10-14T06:02:48.558Z,9.88
2022-10-14T06:05:19.790Z,9.97
2022-10-14T06:07:49.584Z,9.93
2022-10-14T06:10:19.091Z,10.01
2022-10-14T06:12:50.087Z,10.04
2022-10-14T06:15:19.502Z,9.93
2022-10-14T06:17:48.529Z,10.05
2022-10-14T06:20:17.815Z,10.22
2022-10-14T06:22:47.193Z,10.30
2022-10-14T06:25:16.527Z,10.25
2022-10-14T06:27:45.673Z,10.41
2022-10-14T06:30:16.433Z,10.37
2022-10-14T06:32:45.719Z,10.31
2022-10-14T06:35:14.967Z,10.36
2022-10-14T06:37:46.917Z,10.51
2022-10-14T06:40:16.205Z,10.58
2022-10-14T06:42:45.731Z,10.68
2022-10-14T06:45:16.565Z,10.85
2022-10-14T06:47:45.888Z,10.98
2022-10-14T06:50:15.552Z,11.04
2022-10-14T06:52:47.050Z,11.33
2022-10-14T06:55:18.282Z,11.62
2022-10-14T06:57:47.447Z,11.90
2022-10-14T07:00:19.078Z,12.19
2022-10-14T07:02:48.521Z,12.40
2022-10-14T07:05:18.070Z,12.70
2022-10-14T07:07:47.257Z,12.98
2022-10-14T07:10:16.831Z,13.27
2022-10-14T07:12:46.214Z,13.13
2022-10-14T07:15:15.635Z,13.48
2022-10-14T07:17:46.411Z,13.59
2022-10-14T07:20:15.765Z,13.72
2022-10-14T07:22:45.230Z,13.47
2022-10-14T07:25:14.679Z,13.47
2022-10-14T07:27:43.963Z,13.24
2022-10-14T07:30:17.380Z,13.21
2022-10-14T07:32:48.335Z,13.74
2022-10-14T07:35:19.004Z,13.91
2022-10-14T07:37:48.999Z,14.16
2022-10-14T07:40:18.499Z,14.26
2022-10-14T07:42:47.660Z,14.04
2022-10-14T07:45:18.639Z,14.08
2022-10-14T07:47:51.177Z,14.18
2022-10-14T07:50:21.079Z,14.19
2022-10-14T07:52:50.319Z,14.31
2022-10-14T07:55:19.734Z,14.40
2022-10-14T07:57:48.791Z,14.90
2022-10-14T08:00:18.597Z,14.86
2022-10-14T08:02:49.185Z,15.20
2022-10-14T08:05:37.201Z,15.30
2022-10-14T08:08:08.126Z,15.36
2022-10-14T08:10:37.959Z,15.43
2022-10-14T08:13:07.212Z,15.41
2022-10-14T08:15:40.629Z,15.28
2022-10-14T08:18:12.206Z,15.13
2022-10-14T08:20:41.842Z,15.49
2022-10-14T08:23:16.070Z,15.62
2022-10-14T08:25:50.192Z,15.72
2022-10-14T08:28:19.649Z,15.93
2022-10-14T08:30:49.219Z,16.07
2022-10-14T08:33:20.154Z,16.19
2022-10-14T08:35:53.077Z,16.06
2022-10-14T08:38:25.334Z,16.33
2022-10-14T08:41:04.896Z,16.78
2022-10-14T08:43:37.484Z,16.96
2022-10-14T08:46:12.588Z,17.13
2022-10-14T08:51:31.496Z,17.09
2022-10-14T08:54:08.944Z,17.66
2022-10-14T08:56:39.072Z,18.17
2022-10-14T08:59:14.090Z,18.34
2022-10-14T09:01:52.963Z,18.09
2022-10-14T09:04:23.800Z,18.65
2022-10-14T09:06:54.551Z,18.41
2022-10-14T09:09:27.649Z,18.87
2022-10-14T09:12:01.168Z,19.43
2022-10-14T09:14:35.786Z,19.28
2022-10-14T09:19:49.114Z,19.41
2022-10-14T09:22:18.587Z,18.81
2022-10-14T09:24:48.514Z,19.63
2022-10-14T09:27:21.998Z,19.59
2022-10-14T09:29:55.322Z,20.21
2022-10-14T09:32:30.076Z,20.45
2022-10-14T09:35:02.026Z,20.10
2022-10-14T09:37:33.081Z,20.10
2022-10-14T09:40:07.674Z,20.30
2022-10-14T09:42:45.999Z,20.77
2022-10-14T09:45:16.927Z,20.52
2022-10-14T09:47:52.578Z,20.45
2022-10-14T09:50:31.447Z,21.57
2022-10-14T09:53:04.321Z,20.92
2022-10-14T09:55:35.025Z,21.96
2022-10-14T09:58:07.752Z,22.64
2022-10-14T10:00:39.572Z,22.34
2022-10-14T10:03:12.543Z,23.36
2022-10-14T10:05:45.669Z,22.52
2022-10-14T10:08:19.346Z,22.69
2022-10-14T10:11:03.767Z,22.58
2022-10-14T10:13:44.551Z,22.19
2022-10-14T10:16:23.764Z,22.57
2022-10-14T10:18:55.311Z,24.13
2022-10-14T10:21:30.162Z,25.01
2022-10-14T10:24:01.506Z,26.18
2022-10-14T10:26:33.551Z,27.50
2022-10-14T10:29:05.383Z,26.67
2022-10-14T10:31:57.858Z,26.12
2022-10-14T10:34:52.599Z,23.83
2022-10-14T10:37:28.298Z,21.36
2022-10-14T10:40:11.654Z,22.61
2022-10-14T10:42:51.628Z,21.89
2022-10-14T10:45:36.402Z,21.62
2022-10-14T10:48:09.952Z,21.68
2022-10-14T10:50:47.362Z,21.27
2022-10-14T10:53:42.370Z,21.63
2022-10-14T10:56:25.008Z,22.85
2022-10-14T10:59:10.795Z,21.72
2022-10-14T11:01:51.654Z,21.96
2022-10-14T11:04:46.485Z,21.78
2022-10-14T11:07:40.568Z,21.11
2022-10-14T11:10:39.517Z,20.61
2022-10-14T11:13:29.368Z,21.13
2022-10-14T11:16:12.023Z,21.90
2022-10-14T11:18:48.390Z,21.49
2022-10-14T11:21:27.218Z,20.76
2022-10-14T11:27:05.882Z,26.24
2022-10-14T11:30:15.293Z,24.50
2022-10-14T11:33:05.666Z,24.02
2022-10-14T11:35:48.324Z,23.82
2022-10-14T11:38:30.039Z,22.36
2022-10-14T11:41:07.593Z,21.67
2022-10-14T11:43:46.414Z,21.41
2022-10-14T11:46:20.886Z,20.95
2022-10-14T11:48:53.916Z,20.83
2022-10-14T11:51:33.233Z,20.14
2022-10-14T11:54:11.316Z,20.10
2022-10-14T11:56:46.770Z,20.16
2022-10-14T11:59:43.533Z,20.00
2022-10-14T12:02:40.249Z,19.68
2022-10-14T12:05:19.787Z,20.03
2022-10-14T12:08:03.877Z,20.29
2022-10-14T12:10:38.599Z,20.26
2022-10-14T12:13:15.278Z,20.54
2022-10-14T12:15:50.597Z,20.53
2022-10-14T12:18:20.468Z,20.34
2022-10-14T12:20:57.390Z,20.28
2022-10-14T12:23:34.403Z,20.30
2022-10-14T12:26:12.420Z,20.19
2022-10-14T12:28:43.099Z,20.01
2022-10-14T12:31:34.676Z,20.30
2022-10-14T12:34:34.964Z,20.29
2022-10-14T12:37:43.173Z,20.43
2022-10-14T12:40:28.692Z,20.34
2022-10-14T12:43:05.539Z,21.72
2022-10-14T12:45:36.866Z,25.15
2022-10-14T12:48:16.726Z,23.57
2022-10-14T12:50:47.189Z,22.54
2022-10-14T12:53:25.398Z,22.03
2022-10-14T12:55:58.039Z,21.22
2022-10-14T12:58:31.275Z,22.17
2022-10-14T13:01:04.400Z,22.71
2022-10-14T13:03:41.961Z,24.39
2022-10-14T13:06:39.988Z,26.01
2022-10-14T13:09:36.699Z,29.19
2022-10-14T13:12:44.966Z,29.49
2022-10-14T13:15:52.448Z,28.89
2022-10-14T13:18:53.179Z,29.64
2022-10-14T13:21:50.977Z,28.04
2022-10-14T13:24:27.225Z,27.04
2022-10-14T13:27:24.017Z,25.97
2022-10-14T13:30:01.560Z,25.07
2022-10-14T13:32:39.527Z,23.47
2022-10-14T13:35:18.858Z,24.38
2022-10-14T13:37:58.274Z,27.84
2022-10-14T13:40:34.815Z,29.21
2022-10-14T13:43:14.542Z,29.46
2022-10-14T13:45:48.047Z,29.81
2022-10-14T13:48:21.277Z,29.44
2022-10-14T13:51:02.167Z,27.97
2022-10-14T13:53:52.882Z,27.73
2022-10-14T13:56:24.497Z,27.01
2022-10-14T13:58:58.371Z,27.30
2022-10-14T14:01:33.875Z,28.23
2022-10-14T14:04:04.645Z,27.22
2022-10-14T14:06:45.356Z,27.35
2022-10-14T14:09:27.701Z,27.19
2022-10-14T14:12:00.419Z,26.86
2022-10-14T14:14:36.484Z,26.28
2022-10-14T14:17:07.303Z,26.82
2022-10-14T14:19:38.499Z,26.05
2022-10-14T14:22:18.228Z,25.63
2022-10-14T14:24:49.275Z,26.90
2022-10-14T14:27:21.395Z,24.60
2022-10-14T14:29:53.321Z,24.57
2022-10-14T14:32:26.325Z,23.86
2022-10-14T14:34:56.379Z,24.86
2022-10-14T14:40:22.304Z,23.21
2022-10-14T14:42:55.139Z,24.33
2022-10-14T14:45:27.248Z,24.49
2022-10-14T14:47:58.689Z,23.67
2022-10-14T14:50:31.658Z,23.21
2022-10-14T14:53:05.806Z,23.18
2022-10-14T14:55:41.777Z,23.02
2022-10-14T14:58:27.441Z,23.14
2022-10-14T15:00:57.253Z,22.14
2022-10-14T15:03:28.445Z,21.52
2022-10-14T15:06:00.976Z,21.55
2022-10-14T15:08:33.296Z,20.87
2022-10-14T15:11:03.189Z,20.09
2022-10-14T15:13:45.202Z,19.74
2022-10-14T15:16:14.690Z,19.76
2022-10-14T15:18:43.905Z,19.51
2022-10-14T15:21:19.296Z,18.98
2022-10-14T15:24:03.439Z,18.75
2022-10-14T15:26:36.051Z,18.36
2022-10-14T15:29:18.788Z,18.09
2022-10-14T15:32:04.501Z,17.92
2022-10-14T15:34:35.964Z,17.47
2022-10-14T15:37:05.190Z,17.24
2022-10-14T15:39:36.740Z,16.91
2022-10-14T15:42:13.040Z,16.74
2022-10-14T15:44:42.478Z,16.39
2022-10-14T15:47:22.441Z,16.38
2022-10-14T15:49:52.047Z,16.10
2022-10-14T15:52:24.444Z,15.90
2022-10-14T15:54:59.852Z,15.63
2022-10-14T15:57:29.221Z,15.61
2022-10-14T15:59:58.674Z,15.50
2022-10-14T16:02:33.300Z,15.26
2022-10-14T16:07:52.278Z,15.16
2022-10-14T16:10:28.117Z,14.98
2022-10-14T16:12:59.888Z,14.89
2022-10-14T16:15:35.013Z,14.67
2022-10-14T16:18:04.434Z,14.63
2022-10-14T16:20:34.360Z,14.54
2022-10-14T16:23:04.681Z,14.31
2022-10-14T16:25:39.411Z,14.41
2022-10-14T16:28:10.220Z,14.19
2022-10-14T16:30:44.069Z,14.22
2022-10-14T16:33:13.650Z,13.95
2022-10-14T16:35:43.554Z,13.92
2022-10-14T16:38:13.348Z,13.86
2022-10-14T16:40:44.406Z,13.94
2022-10-14T16:43:15.450Z,13.68
2022-10-14T16:45:44.885Z,13.68
2022-10-14T16:48:16.123Z,13.54
2022-10-14T16:50:49.476Z,13.44
2022-10-14T16:53:36.181Z,13.42
2022-10-14T16:56:28.796Z,13.29
2022-10-14T16:58:58.350Z,13.17
2022-10-14T17:01:28.152Z,13.18
2022-10-14T17:03:58.339Z,13.07
2022-10-14T17:06:28.159Z,13.00
2022-10-14T17:08:57.596Z,12.92
2022-10-14T17:11:29.389Z,12.97
2022-10-14T17:14:01.949Z,12.81
2022-10-14T17:16:32.752Z,12.84
2022-10-14T17:19:02.573Z,12.63
2022-10-14T17:21:31.994Z,12.59
2022-10-14T17:24:02.805Z,12.37
2022-10-14T17:26:35.346Z,12.35
2022-10-14T17:29:04.916Z,12.33
2022-10-14T17:31:34.387Z,12.27
2022-10-14T17:34:04.080Z,12.28
2022-10-14T17:36:33.701Z,12.23
2022-10-14T17:39:02.856Z,12.07
2022-10-14T17:41:33.583Z,11.94
2022-10-14T17:44:03.947Z,11.91
2022-10-14T17:46:34.010Z,11.98
2022-10-14T17:49:05.898Z,12.07
2022-10-14T17:51:35.238Z,11.98
2022-10-14T17:54:07.115Z,11.96
2022-10-14T17:56:39.103Z,11.93
2022-10-14T17:59:12.070Z,11.74
2022-10-14T18:04:32.744Z,11.69
2022-10-14T18:07:02.570Z,11.64
2022-10-14T18:09:31.999Z,11.55
2022-10-14T18:12:08.870Z,11.60
2022-10-14T18:14:40.691Z,11.60
2022-10-14T18:17:12.921Z,11.69
2022-10-14T18:19:45.039Z,11.70
2022-10-14T18:22:18.211Z,11.83
2022-10-14T18:24:47.846Z,11.84
2022-10-14T18:27:18.859Z,11.96
2022-10-14T18:29:48.617Z,12.01
2022-10-14T18:32:18.015Z,11.88
2022-10-14T18:34:47.325Z,11.85
2022-10-14T18:37:16.731Z,11.90
2022-10-14T18:39:45.938Z,11.95
2022-10-14T18:42:18.451Z,11.87
2022-10-14T18:44:51.774Z,11.70
2022-10-14T18:47:21.974Z,11.66
2022-10-14T18:49:51.431Z,11.55
2022-10-14T18:52:21.192Z,11.57
2022-10-14T18:54:50.660Z,11.57
2022-10-14T18:57:21.178Z,11.34
2022-10-14T18:59:53.275Z,11.21
2022-10-14T19:02:23.147Z,11.23
2022-10-14T19:04:52.831Z,11.28
2022-10-14T19:07:22.068Z,11.34
2022-10-14T19:09:54.126Z,11.25
2022-10-14T19:12:44.544Z,11.36
2022-10-14T19:15:15.784Z,11.24
2022-10-14T19:17:45.997Z,11.14
2022-10-14T19:20:16.704Z,10.86
2022-10-14T19:22:45.871Z,10.83
2022-10-14T19:25:16.587Z,10.95
2022-10-14T19:27:46.308Z,10.81
2022-10-14T19:30:17.078Z,10.94
2022-10-14T19:32:46.586Z,11.05
2022-10-14T19:35:16.080Z,10.93
2022-10-14T19:37:45.415Z,10.88
2022-10-14T19:40:17.624Z,11.05
2022-10-14T19:42:47.979Z,10.99
2022-10-14T19:45:18.922Z,10.95
2022-10-14T19:47:48.058Z,10.93
2022-10-14T19:50:17.506Z,10.94
2022-10-14T19:52:46.967Z,10.83
2022-10-14T19:55:16.403Z,10.95
2022-10-14T19:57:45.616Z,10.75
2022-10-14T20:00:17.477Z,10.80
2022-10-14T20:02:46.789Z,10.68
2022-10-14T20:05:17.510Z,10.54
2022-10-14T20:07:47.083Z,10.52
2022-10-14T20:10:16.599Z,10.33
2022-10-14T20:12:46.133Z,10.11
2022-10-14T20:15:15.351Z,10.12
2022-10-14T20:17:46.188Z,10.28
2022-10-14T20:20:23.461Z,10.31
2022-10-14T20:22:52.887Z,10.30
2022-10-14T20:25:22.182Z,10.20
2022-10-14T20:27:51.773Z,10.15
2022-10-14T20:30:21.398Z,10.03
2022-10-14T20:32:53.854Z,9.96
2022-10-14T20:35:23.426Z,10.13
2022-10-14T20:37:52.775Z,10.18
2022-10-14T20:40:21.944Z,10.08
2022-10-14T20:42:51.328Z,10.02
2022-10-14T20:45:20.657Z,10.22
2022-10-14T20:47:53.727Z,10.25
2022-10-14T20:50:23.742Z,10.10
2022-10-14T20:52:52.997Z,10.03
2022-10-14T20:55:22.453Z,10.00
2022-10-14T20:57:51.761Z,10.12
2022-10-14T21:00:21.170Z,10.14
2022-10-14T21:02:52.152Z,10.14
2022-10-14T21:05:21.497Z,10.01
2022-10-14T21:07:50.727Z,9.82
2022-10-14T21:10:20.434Z,9.86
2022-10-14T21:12:49.747Z,9.75
2022-10-14T21:15:19.079Z,9.84
2022-10-14T21:17:52.813Z,9.81
2022-10-14T21:20:22.106Z,9.68
2022-10-14T21:22:51.509Z,9.86
2022-10-14T21:25:20.781Z,9.90
2022-10-14T21:27:50.030Z,9.78
2022-10-14T21:30:19.505Z,9.91
2022-10-14T21:32:48.821Z,9.84
2022-10-14T21:35:19.469Z,9.76
2022-10-14T21:37:48.902Z,9.87
2022-10-14T21:40:18.328Z,9.76
2022-10-14T21:42:47.552Z,9.77
2022-10-14T21:45:16.955Z,9.74
2022-10-14T21:47:46.303Z,9.70
2022-10-14T21:50:15.747Z,9.64
2022-10-14T21:52:46.628Z,9.70
2022-10-14T21:55:16.125Z,9.67
2022-10-14T21:57:45.304Z,9.67
2022-10-14T22:00:15.139Z,9.59
2022-10-14T22:02:44.362Z,9.58
2022-10-14T22:05:13.643Z,9.52
2022-10-14T22:07:43.126Z,9.42
2022-10-14T22:10:27.574Z,9.26
2022-10-14T22:12:58.035Z,9.25
2022-10-14T22:15:27.561Z,9.25
2022-10-14T22:17:56.853Z,9.22
2022-10-14T22:20:26.620Z,9.24
2022-10-14T22:22:57.842Z,9.27
2022-10-14T22:25:28.798Z,9.29
2022-10-14T22:27:57.981Z,9.21
2022-10-14T22:30:27.350Z,9.18
2022-10-14T22:32:56.854Z,9.28
2022-10-14T22:35:26.252Z,9.24
2022-10-14T22:37:55.495Z,9.42
2022-10-14T22:40:25.053Z,9.59
2022-10-14T22:42:56.445Z,9.60
2022-10-14T22:45:25.888Z,9.52
2022-10-14T22:47:55.152Z,9.56
2022-10-14T22:50:24.562Z,9.65
2022-10-14T22:52:53.980Z,9.54
2022-10-14T22:55:23.448Z,9.42
2022-10-14T22:57:54.114Z,9.48
2022-10-14T23:00:23.587Z,9.45
2022-10-14T23:02:52.865Z,9.34
2022-10-14T23:05:22.252Z,9.33
2022-10-14T23:07:51.721Z,9.42
2022-10-14T23:10:20.920Z,9.37
2022-10-14T23:12:50.197Z,9.34
2022-10-14T23:15:21.284Z,9.25
2022-10-14T23:17:50.468Z,9.19
2022-10-14T23:20:19.768Z,9.17
2022-10-14T23:22:49.242Z,9.06
2022-10-14T23:25:18.550Z,9.18
2022-10-14T23:27:47.770Z,9.17
2022-10-14T23:30:19.331Z,9.26
2022-10-14T23:32:48.594Z,9.26
2022-10-14T23:35:17.841Z,9.39
2022-10-14T23:37:47.664Z,9.36
2022-10-14T23:40:17.095Z,9.29
2022-10-14T23:42:46.508Z,9.37
2022-10-14T23:45:16.052Z,9.39
2022-10-14T23:47:46.719Z,9.50
2022-10-14T23:50:16.034Z,9.50
2022-10-14T23:52:45.975Z,9.49
2022-10-14T23:55:15.529Z,9.52
2022-10-14T23:57:44.717Z,9.44
